Time;durP1;ratioP1;P1;durP2;ratioP2;P2;SDS_P1;SDS_P2;PMS_P1;PMS_P2;Temp;Humidity;BMP_temperature;BMP_pressure;BME280_temperature;BME280_humidity;BME280_pressure;Samples;Min_cycle;Max_cycle;Signal;HPM_P1;HPM_P2
2024/01/08 00:01:26;;;;;;;10.45;4.03;;;11.80;93.10;;;;;;5014050;28;20041;-75
2024/01/08 00:03:52;;;;;;;7.10;4.63;;;11.80;93.20;;;;;;5014679;28;20043;-76
2024/01/08 00:06:18;;;;;;;5.57;3.90;;;11.70;93.60;;;;;;5013475;28;20045;-74
2024/01/08 00:08:44;;;;;;;6.03;3.63;;;11.70;93.20;;;;;;5014135;28;20532;-74
2024/01/08 00:11:10;;;;;;;5.10;3.88;;;11.60;93.20;;;;;;4996103;28;20065;-74
2024/01/08 00:13:36;;;;;;;6.28;4.32;;;11.60;93.20;;;;;;5013333;28;20069;-76
2024/01/08 00:16:01;;;;;;;6.63;4.38;;;11.70;93.30;;;;;;5013204;28;20037;-74
2024/01/08 00:18:30;;;;;;;6.35;4.50;;;11.70;93.30;;;;;;5013299;28;20041;-74
2024/01/08 00:20:56;;;;;;;6.38;4.38;;;11.70;93.30;;;;;;5013453;28;20096;-76
2024/01/08 00:23:23;;;;;;;6.75;4.10;;;11.80;93.30;;;;;;5013716;28;20389;-75
2024/01/08 00:25:49;;;;;;;7.55;4.50;;;11.80;93.40;;;;;;5013900;28;20117;-75
2024/01/08 00:28:14;;;;;;;5.40;4.03;;;11.80;93.30;;;;;;5013824;28;20433;-76
2024/01/08 00:30:43;;;;;;;7.72;4.30;;;11.80;93.50;;;;;;5013818;28;20397;-75
2024/01/08 00:33:09;;;;;;;6.60;4.68;;;11.90;93.20;;;;;;5013381;28;20041;-74
2024/01/08 00:35:35;;;;;;;7.32;4.35;;;11.80;93.20;;;;;;5013926;28;20038;-75
2024/01/08 00:38:01;;;;;;;6.43;4.18;;;11.90;93.20;;;;;;5014332;28;20469;-75
2024/01/08 00:40:26;;;;;;;5.82;4.32;;;11.90;93.20;;;;;;5014052;28;20137;-75
2024/01/08 00:42:52;;;;;;;6.65;4.68;;;11.90;93.10;;;;;;5014057;28;20040;-74
2024/01/08 00:45:18;;;;;;;5.55;4.13;;;11.90;93.20;;;;;;5013428;28;20031;-74
2024/01/08 00:47:43;;;;;;;8.55;4.93;;;11.90;93.20;;;;;;4995608;28;20034;-74
2024/01/08 00:50:13;;;;;;;9.55;3.70;;;11.90;93.10;;;;;;5013349;28;20097;-74
2024/01/08 00:52:42;;;;;;;7.78;4.88;;;11.80;93.00;;;;;;5013162;28;20042;-73
2024/01/08 00:55:11;;;;;;;6.25;4.50;;;11.80;93.10;;;;;;5013267;28;20045;-73
2024/01/08 00:57:38;;;;;;;7.50;4.72;;;11.80;93.20;;;;;;5013146;28;20093;-74
2024/01/08 01:00:05;;;;;;;5.82;4.20;;;11.70;93.20;;;;;;5013189;28;20041;-75
2024/01/08 01:02:30;;;;;;;6.85;4.57;;;11.70;93.20;;;;;;5013508;28;20373;-74
2024/01/08 01:04:57;;;;;;;6.35;4.57;;;11.60;93.30;;;;;;5013113;28;20034;-73
2024/01/08 01:07:23;;;;;;;7.32;5.00;;;11.70;93.30;;;;;;5012976;28;20026;-74
2024/01/08 01:09:49;;;;;;;8.68;4.80;;;11.70;93.40;;;;;;5012805;28;20042;-74
2024/01/08 01:12:14;;;;;;;6.28;4.38;;;11.70;93.30;;;;;;5012917;28;20029;-75
2024/01/08 01:14:40;;;;;;;7.70;4.35;;;11.60;93.30;;;;;;5012996;28;20524;-74
2024/01/08 01:17:06;;;;;;;5.93;4.10;;;11.70;93.30;;;;;;5012965;28;20121;-76
2024/01/08 01:19:32;;;;;;;7.28;4.53;;;11.70;93.40;;;;;;5012698;28;20463;-73
2024/01/08 01:21:58;;;;;;;7.68;4.45;;;11.70;93.30;;;;;;5013265;28;20072;-76
2024/01/08 01:24:24;;;;;;;7.00;4.43;;;11.80;93.30;;;;;;4995267;28;20446;-75
2024/01/08 01:26:50;;;;;;;6.43;4.45;;;11.70;93.20;;;;;;5012137;28;20116;-75
2024/01/08 01:29:15;;;;;;;7.40;4.88;;;11.70;93.40;;;;;;5013153;28;20109;-74
2024/01/08 01:31:41;;;;;;;6.65;4.60;;;11.70;93.40;;;;;;5013410;28;20108;-75
2024/01/08 01:34:09;;;;;;;7.50;4.45;;;11.70;93.40;;;;;;5013065;28;20493;-73
2024/01/08 01:36:35;;;;;;;6.47;3.85;;;11.70;93.30;;;;;;5013084;28;20121;-74
2024/01/08 01:39:07;;;;;;;6.03;4.13;;;11.70;93.30;;;;;;5013188;28;20113;-74
2024/01/08 01:41:33;;;;;;;6.43;4.05;;;11.70;93.30;;;;;;5012934;28;20034;-73
2024/01/08 01:43:59;;;;;;;6.65;3.70;;;11.60;93.30;;;;;;5013308;28;20500;-74
2024/01/08 01:46:33;;;;;;;5.80;3.75;;;11.60;93.30;;;;;;5013734;28;20033;-74
2024/01/08 01:48:59;;;;;;;5.72;3.75;;;11.60;93.40;;;;;;5012726;28;20065;-74
2024/01/08 01:51:25;;;;;;;6.85;3.85;;;11.70;93.30;;;;;;5012869;28;20141;-75
2024/01/08 01:53:52;;;;;;;6.00;3.85;;;11.70;93.30;;;;;;4995113;28;20390;-74
2024/01/08 01:56:18;;;;;;;10.00;3.78;;;11.70;93.30;;;;;;5012452;28;20402;-74
2024/01/08 01:58:46;;;;;;;7.68;4.15;;;11.80;93.20;;;;;;5012547;28;20040;-74
2024/01/08 02:01:12;;;;;;;6.20;4.30;;;11.80;93.30;;;;;;5012458;28;20057;-73
2024/01/08 02:03:39;;;;;;;5.20;3.65;;;11.80;93.20;;;;;;5012334;28;20484;-75
2024/01/08 02:06:09;;;;;;;5.85;3.70;;;11.70;93.20;;;;;;4995087;28;20030;-75
2024/01/08 02:08:36;;;;;;;6.00;4.03;;;11.70;93.10;;;;;;5012782;28;20110;-74
2024/01/08 02:11:03;;;;;;;7.57;4.20;;;11.70;93.20;;;;;;4995792;28;20505;-76
2024/01/08 02:13:29;;;;;;;6.13;3.97;;;11.70;93.20;;;;;;5012789;28;20109;-74
2024/01/08 02:15:54;;;;;;;6.40;3.80;;;11.70;93.20;;;;;;5012344;28;20102;-74
2024/01/08 02:18:20;;;;;;;6.20;4.20;;;11.60;93.20;;;;;;5012402;28;20503;-74
2024/01/08 02:20:46;;;;;;;11.57;4.40;;;11.60;93.20;;;;;;5012709;28;20038;-74
2024/01/08 02:23:12;;;;;;;5.97;3.92;;;11.70;93.20;;;;;;5012517;28;20212;-75
2024/01/08 02:25:37;;;;;;;6.15;4.28;;;11.60;93.10;;;;;;5012388;28;20034;-75
2024/01/08 02:28:04;;;;;;;5.75;4.05;;;11.70;93.20;;;;;;4994608;28;20038;-74
2024/01/08 02:30:29;;;;;;;6.13;4.30;;;11.70;93.10;;;;;;5012405;28;20030;-75
2024/01/08 02:32:55;;;;;;;6.07;3.85;;;11.70;93.20;;;;;;5012409;28;20044;-74
2024/01/08 02:35:21;;;;;;;7.22;4.32;;;11.70;93.20;;;;;;5012286;28;20481;-74
2024/01/08 02:37:46;;;;;;;6.82;4.15;;;11.70;93.10;;;;;;5013071;28;20049;-74
2024/01/08 02:40:12;;;;;;;6.22;4.10;;;11.60;93.10;;;;;;5015918;28;20444;-74
2024/01/08 02:42:41;;;;;;;7.28;4.15;;;11.60;93.20;;;;;;5016161;28;20065;-75
2024/01/08 02:45:08;;;;;;;8.77;4.18;;;11.60;93.40;;;;;;5015822;28;20026;-74
2024/01/08 02:47:37;;;;;;;7.65;4.28;;;11.60;93.10;;;;;;5015706;28;20110;-74
2024/01/08 02:50:07;;;;;;;5.70;3.80;;;11.60;93.00;;;;;;5015757;28;20414;-74
2024/01/08 02:52:33;;;;;;;10.43;4.22;;;11.50;93.20;;;;;;5015909;28;20073;-74
2024/01/08 02:54:59;;;;;;;6.82;4.00;;;11.50;93.20;;;;;;5015754;28;20512;-74
2024/01/08 02:57:29;;;;;;;5.53;4.00;;;11.50;93.20;;;;;;5015640;28;20040;-74
2024/01/08 02:59:57;;;;;;;5.88;4.05;;;11.50;93.30;;;;;;5015255;28;20045;-74
2024/01/08 03:02:24;;;;;;;7.18;4.22;;;11.50;93.30;;;;;;5015948;28;20026;-74
2024/01/08 03:04:50;;;;;;;6.65;4.80;;;11.40;93.20;;;;;;5015743;28;20034;-74
2024/01/08 03:07:20;;;;;;;6.30;4.20;;;11.40;93.40;;;;;;5015376;28;20097;-74
2024/01/08 03:09:47;;;;;;;6.40;4.43;;;11.30;93.00;;;;;;5015279;28;20062;-75
2024/01/08 03:12:13;;;;;;;8.15;4.60;;;11.30;93.30;;;;;;4997277;28;20448;-73
2024/01/08 03:14:39;;;;;;;5.60;4.35;;;11.40;93.30;;;;;;5015226;28;20397;-74
2024/01/08 03:17:05;;;;;;;8.32;5.28;;;11.30;93.30;;;;;;5015543;28;20030;-73
2024/01/08 03:19:31;;;;;;;9.30;4.95;;;11.30;93.30;;;;;;5015494;28;20050;-74
2024/01/08 03:21:59;;;;;;;7.15;4.50;;;11.30;93.30;;;;;;5014908;28;20109;-74
2024/01/08 03:24:24;;;;;;;5.93;4.43;;;11.30;93.40;;;;;;5015090;28;20049;-74
2024/01/08 03:26:50;;;;;;;6.20;4.45;;;11.40;93.40;;;;;;5015003;28;20037;-75
2024/01/08 03:29:16;;;;;;;6.45;4.30;;;11.40;93.40;;;;;;5015022;28;20038;-74
2024/01/08 03:31:43;;;;;;;6.43;4.32;;;11.40;93.30;;;;;;4997304;28;20393;-73
2024/01/08 03:34:09;;;;;;;7.82;4.47;;;11.50;93.40;;;;;;5014865;28;20030;-75
2024/01/08 03:36:34;;;;;;;6.38;4.45;;;11.40;93.20;;;;;;5014982;28;20421;-74
2024/01/08 03:39:00;;;;;;;10.05;4.68;;;11.40;93.10;;;;;;5014667;28;20100;-74
2024/01/08 03:41:26;;;;;;;8.27;4.85;;;11.40;93.20;;;;;;4996827;28;20096;-74
2024/01/08 03:43:52;;;;;;;7.28;4.53;;;11.40;93.20;;;;;;5014855;28;20061;-74
2024/01/08 03:46:18;;;;;;;7.68;4.97;;;11.40;93.40;;;;;;5015200;28;20037;-75
2024/01/08 03:48:43;;;;;;;6.13;4.40;;;11.40;93.30;;;;;;5014487;28;20054;-75
2024/01/08 03:51:09;;;;;;;6.20;4.30;;;11.40;93.30;;;;;;5014344;28;20046;-75
2024/01/08 03:53:35;;;;;;;5.38;3.83;;;11.40;93.30;;;;;;5014465;28;20038;-75
2024/01/08 03:56:00;;;;;;;6.15;4.03;;;11.40;93.40;;;;;;5014194;28;20041;-74
2024/01/08 03:58:27;;;;;;;6.45;4.10;;;11.40;93.40;;;;;;5014258;28;20033;-74
2024/01/08 04:00:53;;;;;;;9.82;4.28;;;11.30;93.20;;;;;;5014218;28;20038;-74
2024/01/08 04:03:19;;;;;;;6.43;4.10;;;11.30;93.20;;;;;;5014199;28;20034;-75
2024/01/08 04:05:45;;;;;;;5.78;3.90;;;11.30;93.30;;;;;;5014243;28;20093;-74
2024/01/08 04:08:11;;;;;;;7.00;4.38;;;11.30;93.30;;;;;;4996569;28;20037;-75
2024/01/08 04:10:37;;;;;;;6.05;4.70;;;11.30;93.30;;;;;;5014037;28;20034;-74
2024/01/08 04:13:06;;;;;;;7.85;4.72;;;11.30;93.40;;;;;;5014384;28;20037;-74
2024/01/08 04:15:32;;;;;;;7.13;4.97;;;11.20;93.40;;;;;;5014140;28;20057;-75
2024/01/08 04:17:57;;;;;;;7.18;4.68;;;11.20;93.40;;;;;;5014410;28;20034;-75
2024/01/08 04:20:23;;;;;;;9.60;5.20;;;11.10;93.40;;;;;;5013953;28;20042;-74
2024/01/08 04:22:50;;;;;;;6.40;4.90;;;11.00;93.40;;;;;;5014147;28;20034;-74
2024/01/08 04:25:16;;;;;;;6.97;4.47;;;11.00;93.60;;;;;;5013892;28;20371;-74
2024/01/08 04:27:43;;;;;;;6.68;4.68;;;11.00;93.70;;;;;;5013741;28;20034;-74
2024/01/08 04:30:09;;;;;;;6.63;4.97;;;11.00;93.70;;;;;;5014602;28;20042;-74
2024/01/08 04:32:35;;;;;;;6.70;5.00;;;11.10;93.60;;;;;;5014038;28;20037;-74
2024/01/08 04:35:02;;;;;;;6.95;4.80;;;11.10;93.60;;;;;;5013877;28;20096;-74
2024/01/08 04:37:28;;;;;;;7.25;4.63;;;11.20;93.70;;;;;;5013620;28;20167;-75
2024/01/08 04:39:54;;;;;;;8.07;4.40;;;11.20;93.50;;;;;;5013621;28;20537;-76
2024/01/08 04:42:20;;;;;;;7.43;4.55;;;11.20;93.50;;;;;;5013695;28;20040;-75
2024/01/08 04:44:46;;;;;;;6.35;4.80;;;11.20;93.50;;;;;;4996223;28;20033;-75
2024/01/08 04:47:12;;;;;;;6.43;5.00;;;11.20;93.50;;;;;;5013858;28;20033;-75
2024/01/08 04:49:37;;;;;;;7.65;5.43;;;11.20;93.60;;;;;;5013966;28;20057;-74
2024/01/08 04:52:04;;;;;;;7.70;5.75;;;11.20;93.60;;;;;;5014007;28;20038;-74
2024/01/08 04:54:29;;;;;;;7.43;4.95;;;11.20;93.60;;;;;;5013891;28;20062;-75
2024/01/08 04:56:55;;;;;;;7.53;5.35;;;11.10;93.50;;;;;;5013521;28;20391;-73
2024/01/08 04:59:23;;;;;;;7.72;5.47;;;11.10;93.50;;;;;;5013494;28;20387;-74
2024/01/08 05:01:49;;;;;;;7.10;5.35;;;11.10;93.60;;;;;;4995627;28;20030;-74
2024/01/08 05:04:15;;;;;;;8.43;5.97;;;11.10;93.80;;;;;;5013254;28;20104;-74
2024/01/08 05:06:41;;;;;;;7.50;5.65;;;11.10;93.80;;;;;;5013339;28;20108;-73
2024/01/08 05:09:08;;;;;;;7.03;5.10;;;11.10;93.80;;;;;;5013587;28;20080;-75
2024/01/08 05:11:34;;;;;;;7.35;5.60;;;11.00;93.80;;;;;;5013353;28;20034;-75
2024/01/08 05:14:00;;;;;;;9.52;6.10;;;11.00;93.90;;;;;;5013104;28;20045;-73
2024/01/08 05:16:26;;;;;;;7.80;6.00;;;11.00;93.80;;;;;;5013388;28;20037;-76
2024/01/08 05:18:52;;;;;;;9.02;5.40;;;11.00;93.80;;;;;;5012836;28;20042;-75
2024/01/08 05:21:17;;;;;;;7.65;6.05;;;11.00;93.80;;;;;;5013737;28;20034;-75
2024/01/08 05:23:43;;;;;;;7.63;5.93;;;11.00;93.80;;;;;;5014093;28;20030;-74
2024/01/08 05:26:09;;;;;;;9.20;5.90;;;11.00;93.90;;;;;;5013040;28;20042;-74
2024/01/08 05:28:34;;;;;;;8.73;6.43;;;11.00;93.80;;;;;;5012768;28;20485;-74
2024/01/08 05:31:00;;;;;;;7.90;5.97;;;11.00;93.80;;;;;;5012823;28;20058;-75
2024/01/08 05:33:26;;;;;;;10.63;6.10;;;11.00;93.90;;;;;;5012936;28;20040;-73
2024/01/08 05:35:52;;;;;;;8.43;6.18;;;11.00;93.80;;;;;;5012630;28;20042;-74
2024/01/08 05:38:17;;;;;;;10.50;6.03;;;10.90;93.80;;;;;;5012643;28;20076;-74
2024/01/08 05:40:43;;;;;;;7.97;5.82;;;10.90;94.00;;;;;;5012729;28;20073;-75
2024/01/08 05:43:09;;;;;;;9.40;6.10;;;11.00;94.00;;;;;;5013146;28;20505;-75
2024/01/08 05:45:34;;;;;;;10.63;6.07;;;11.00;93.90;;;;;;5012742;28;20030;-74
2024/01/08 05:48:00;;;;;;;10.07;6.00;;;11.10;94.00;;;;;;5012580;28;20038;-73
2024/01/08 05:50:29;;;;;;;10.60;6.07;;;11.10;94.00;;;;;;5012188;28;20045;-74
2024/01/08 05:52:55;;;;;;;7.55;5.90;;;11.10;93.90;;;;;;5012245;28;20026;-73
2024/01/08 05:55:20;;;;;;;10.02;6.32;;;11.10;93.80;;;;;;5012846;28;20057;-74
2024/01/08 05:57:46;;;;;;;8.75;5.75;;;11.00;93.90;;;;;;5012645;28;20110;-75
2024/01/08 06:00:12;;;;;;;9.10;6.60;;;10.90;93.80;;;;;;5012333;28;20050;-75
2024/01/08 06:02:38;;;;;;;8.57;6.40;;;10.90;93.80;;;;;;5012447;28;20040;-74
2024/01/08 06:05:04;;;;;;;9.35;6.68;;;11.00;94.00;;;;;;5012356;28;20033;-74
2024/01/08 06:07:30;;;;;;;8.73;5.80;;;10.90;93.80;;;;;;5012484;28;20370;-75
2024/01/08 06:09:56;;;;;;;8.23;5.90;;;11.00;94.10;;;;;;4994781;28;20048;-75
2024/01/08 06:12:21;;;;;;;7.90;5.68;;;11.00;94.00;;;;;;5012202;28;20030;-73
2024/01/08 06:14:48;;;;;;;8.48;5.50;;;11.00;94.00;;;;;;5016054;28;20034;-77
2024/01/08 06:17:14;;;;;;;8.63;5.85;;;11.00;94.00;;;;;;5016211;28;20029;-75
2024/01/08 06:19:40;;;;;;;7.35;5.65;;;11.00;94.00;;;;;;5016199;28;20042;-75
2024/01/08 06:22:06;;;;;;;10.05;5.88;;;11.10;94.00;;;;;;5016414;28;20034;-74
2024/01/08 06:24:32;;;;;;;8.73;5.82;;;11.10;93.90;;;;;;5016071;28;20096;-75
2024/01/08 06:26:58;;;;;;;8.55;5.78;;;11.10;94.00;;;;;;5015898;28;20462;-74
2024/01/08 06:29:24;;;;;;;9.35;5.93;;;11.10;93.90;;;;;;5015964;28;20045;-74
2024/01/08 06:31:50;;;;;;;7.90;6.20;;;11.10;93.80;;;;;;5016315;28;20440;-74
2024/01/08 06:34:15;;;;;;;8.10;5.97;;;11.10;93.90;;;;;;5016014;28;20045;-75
2024/01/08 06:36:41;;;;;;;8.77;6.40;;;11.10;93.90;;;;;;5015927;28;20048;-74
2024/01/08 06:39:10;;;;;;;10.13;6.43;;;11.00;93.80;;;;;;5015687;28;20401;-74
2024/01/08 06:41:36;;;;;;;14.02;6.30;;;11.10;93.30;;;;;;5015830;28;20429;-75
2024/01/08 06:44:03;;;;;;;7.22;5.75;;;11.00;93.80;;;;;;5015810;28;20038;-74
2024/01/08 06:46:28;;;;;;;7.95;5.28;;;11.10;93.80;;;;;;5015787;28;20030;-75
2024/01/08 06:48:54;;;;;;;8.02;5.68;;;11.10;93.80;;;;;;5015441;28;20050;-75
2024/01/08 06:51:20;;;;;;;10.88;5.47;;;11.10;93.80;;;;;;5016030;28;20034;-74
2024/01/08 06:53:47;;;;;;;11.68;5.93;;;11.10;93.80;;;;;;5016527;28;20034;-74
2024/01/08 06:56:12;;;;;;;7.63;5.28;;;11.10;93.80;;;;;;5015385;28;20034;-74
2024/01/08 06:58:38;;;;;;;8.57;5.93;;;11.10;93.60;;;;;;5014552;28;20556;-78
2024/01/08 07:01:05;;;;;;;7.32;5.65;;;11.00;93.60;;;;;;5015409;28;20116;-77
2024/01/08 07:03:31;;;;;;;9.88;5.43;;;11.00;93.60;;;;;;5015398;28;20065;-77
2024/01/08 07:05:57;;;;;;;10.73;5.88;;;11.00;93.80;;;;;;4997481;28;20046;-75
2024/01/08 07:08:22;;;;;;;8.73;5.30;;;11.10;93.70;;;;;;5015357;28;20030;-75
2024/01/08 07:10:49;;;;;;;7.63;5.20;;;11.10;93.60;;;;;;5015454;28;20030;-77
2024/01/08 07:13:17;;;;;;;7.90;5.85;;;11.20;93.60;;;;;;5014570;28;20092;-73
2024/01/08 07:15:46;;;;;;;9.48;5.03;;;11.30;93.50;;;;;;5014543;28;20018;-73
2024/01/08 07:18:12;;;;;;;7.20;5.28;;;11.30;93.30;;;;;;5014710;28;20037;-73
2024/01/08 07:20:40;;;;;;;9.95;5.72;;;11.30;93.40;;;;;;5014926;28;20054;-73
2024/01/08 07:23:08;;;;;;;7.97;5.20;;;11.50;93.20;;;;;;5014952;28;20036;-74
2024/01/08 07:25:38;;;;;;;13.48;5.45;;;12.00;92.90;;;;;;5014671;28;20045;-75
2024/01/08 07:28:06;;;;;;;11.35;6.55;;;12.30;92.60;;;;;;5014708;28;20034;-74
2024/01/08 07:30:32;;;;;;;7.78;5.72;;;12.10;92.30;;;;;;5014490;28;20034;-75
2024/01/08 07:32:58;;;;;;;7.93;5.60;;;11.90;92.50;;;;;;5014708;28;20044;-72
2024/01/08 07:35:24;;;;;;;8.38;5.20;;;11.70;92.40;;;;;;5014599;28;20026;-73
2024/01/08 07:37:55;;;;;;;9.85;5.68;;;11.60;92.60;;;;;;5014739;28;20057;-71
2024/01/08 07:40:22;;;;;;;9.27;5.47;;;11.50;92.60;;;;;;5014253;28;20038;-74
2024/01/08 07:42:48;;;;;;;8.05;5.47;;;11.50;92.70;;;;;;5014385;28;20044;-72
2024/01/08 07:45:14;;;;;;;8.52;4.45;;;11.50;92.70;;;;;;5014379;28;20026;-72
2024/01/08 07:47:40;;;;;;;9.43;4.70;;;11.50;92.60;;;;;;4996722;28;20029;-72
2024/01/08 07:50:07;;;;;;;6.82;4.28;;;11.50;92.60;;;;;;5014025;28;20179;-73
2024/01/08 07:52:33;;;;;;;8.98;4.88;;;11.40;92.60;;;;;;5014714;28;20026;-71
2024/01/08 07:54:58;;;;;;;9.32;4.75;;;11.40;92.70;;;;;;5014756;28;20099;-72
2024/01/08 07:57:24;;;;;;;8.82;4.45;;;11.40;92.70;;;;;;5014445;28;20486;-73
2024/01/08 07:59:50;;;;;;;9.05;4.70;;;11.40;92.60;;;;;;5014371;28;20064;-72
2024/01/08 08:02:15;;;;;;;8.82;5.25;;;11.40;92.60;;;;;;5014120;28;20042;-71
2024/01/08 08:04:41;;;;;;;10.45;4.70;;;11.40;92.40;;;;;;5014242;28;20041;-71
2024/01/08 08:07:07;;;;;;;10.80;4.90;;;11.40;92.40;;;;;;5014236;28;20338;-71
2024/01/08 08:09:32;;;;;;;8.70;5.15;;;11.40;92.40;;;;;;5013757;28;20038;-72
2024/01/08 08:11:58;;;;;;;6.05;4.20;;;11.40;92.30;;;;;;5014161;28;20130;-74
2024/01/08 08:14:26;;;;;;;9.05;4.47;;;11.50;92.30;;;;;;5014033;28;20455;-74
2024/01/08 08:16:52;;;;;;;7.65;4.30;;;11.50;92.30;;;;;;5014017;28;20032;-74
2024/01/08 08:19:18;;;;;;;7.55;4.30;;;11.40;92.20;;;;;;5013970;28;20080;-73
2024/01/08 08:21:44;;;;;;;10.93;4.32;;;11.50;92.20;;;;;;5013875;28;20065;-74
2024/01/08 08:24:10;;;;;;;10.60;4.88;;;11.50;92.20;;;;;;5013922;28;20041;-74
2024/01/08 08:26:35;;;;;;;8.98;4.32;;;11.60;92.10;;;;;;5013546;28;20042;-74
2024/01/08 08:29:01;;;;;;;10.32;4.32;;;11.70;92.00;;;;;;5013703;28;20533;-74
2024/01/08 08:31:27;;;;;;;8.90;4.43;;;11.70;92.00;;;;;;5013964;28;20034;-74
2024/01/08 08:33:53;;;;;;;8.85;4.60;;;11.70;91.90;;;;;;5013430;28;20033;-74
2024/01/08 08:36:18;;;;;;;8.85;4.60;;;11.70;91.90;;;;;;5012820;28;20041;-74
2024/01/08 08:38:44;;;;;;;8.48;4.60;;;11.70;91.70;;;;;;5013286;28;20029;-74
2024/01/08 08:41:09;;;;;;;9.88;4.88;;;11.70;91.60;;;;;;4995820;28;20389;-74
2024/01/08 08:43:36;;;;;;;13.63;5.25;;;11.70;91.70;;;;;;5013557;28;20045;-73
2024/01/08 08:46:02;;;;;;;8.77;4.25;;;11.80;91.50;;;;;;5013482;28;20057;-74
2024/01/08 08:48:28;;;;;;;7.15;4.45;;;11.90;91.60;;;;;;5013089;28;20042;-74
2024/01/08 08:50:54;;;;;;;10.63;4.55;;;11.90;91.50;;;;;;5013757;28;20079;-74
2024/01/08 08:53:20;;;;;;;11.80;5.05;;;12.00;91.40;;;;;;5013705;28;20034;-74
2024/01/08 08:55:45;;;;;;;9.50;3.95;;;12.10;91.50;;;;;;5013308;28;20041;-73
2024/01/08 08:58:11;;;;;;;6.90;3.95;;;12.00;91.10;;;;;;5013116;28;20422;-75
2024/01/08 09:00:37;;;;;;;13.93;5.00;;;12.00;91.20;;;;;;5013167;28;20046;-74
2024/01/08 09:03:03;;;;;;;6.45;3.72;;;12.00;91.10;;;;;;5013386;28;20118;-75
2024/01/08 09:05:32;;;;;;;8.13;3.53;;;12.00;91.00;;;;;;5013280;28;20034;-74
2024/01/08 09:07:58;;;;;;;9.27;3.63;;;12.00;90.90;;;;;;5013067;28;20060;-74
2024/01/08 09:10:24;;;;;;;8.90;4.40;;;12.00;91.00;;;;;;5013177;28;20034;-76
2024/01/08 09:12:49;;;;;;;9.90;3.60;;;12.10;90.70;;;;;;5013389;28;20437;-73
2024/01/08 09:15:15;;;;;;;6.18;3.08;;;12.10;90.80;;;;;;4995129;28;20524;-75
2024/01/08 09:17:41;;;;;;;10.07;3.28;;;12.10;90.50;;;;;;5012717;28;20103;-74
2024/01/08 09:20:11;;;;;;;5.70;3.38;;;12.20;90.60;;;;;;5012786;28;20034;-74
2024/01/08 09:22:37;;;;;;;8.02;3.03;;;12.30;90.40;;;;;;5012533;28;20132;-76
2024/01/08 09:25:04;;;;;;;6.80;3.03;;;12.30;90.20;;;;;;5012856;28;20096;-75
2024/01/08 09:27:31;;;;;;;5.40;2.90;;;12.20;90.00;;;;;;5012958;28;20061;-74
2024/01/08 09:29:57;;;;;;;7.32;3.20;;;12.20;89.90;;;;;;5012761;28;20041;-74
2024/01/08 09:32:24;;;;;;;9.38;3.47;;;12.20;90.00;;;;;;5012877;28;20030;-75
2024/01/08 09:34:50;;;;;;;6.10;3.45;;;12.20;90.00;;;;;;5012395;28;20037;-74
2024/01/08 09:37:16;;;;;;;7.35;3.40;;;12.20;89.90;;;;;;5012751;28;20049;-75
2024/01/08 09:39:42;;;;;;;5.88;3.22;;;12.30;89.70;;;;;;5012541;28;20042;-74
2024/01/08 09:42:09;;;;;;;7.95;3.78;;;12.30;89.50;;;;;;4978779;28;20120;-76
2024/01/08 09:44:38;;;;;;;8.07;3.08;;;12.40;89.60;;;;;;4994691;28;20030;-74
2024/01/08 09:47:04;;;;;;;7.55;3.13;;;12.40;89.20;;;;;;5012331;28;20061;-73
2024/01/08 09:49:32;;;;;;;8.50;3.08;;;12.50;89.10;;;;;;5012379;28;20057;-75
2024/01/08 09:52:02;;;;;;;6.38;3.33;;;12.60;88.90;;;;;;5012455;28;20070;-75
2024/01/08 09:54:29;;;;;;;7.35;3.03;;;12.60;88.30;;;;;;5012176;28;20034;-75
2024/01/08 09:56:58;;;;;;;6.50;2.92;;;12.60;87.60;;;;;;5012406;28;20092;-74
2024/01/08 09:59:27;;;;;;;9.70;3.65;;;12.60;88.20;;;;;;5012425;28;20045;-75
2024/01/08 10:01:56;;;;;;;8.50;3.22;;;12.60;87.80;;;;;;5012591;28;20125;-74
2024/01/08 10:04:26;;;;;;;6.95;3.25;;;12.70;88.20;;;;;;5012444;28;20482;-75
2024/01/08 10:07:08;;;;;;;6.68;2.83;;;12.80;87.70;;;;;;5012519;28;20046;-75
2024/01/08 10:09:34;;;;;;;9.57;3.85;;;12.90;87.40;;;;;;5012438;28;20092;-75
2024/01/08 10:12:00;;;;;;;6.20;2.78;;;13.00;87.10;;;;;;5012608;28;20125;-75
2024/01/08 10:14:26;;;;;;;5.78;2.70;;;13.10;87.00;;;;;;5012694;28;20069;-75
2024/01/08 10:16:55;;;;;;;6.95;2.78;;;13.20;86.70;;;;;;5012462;28;20432;-75
2024/01/08 10:19:23;;;;;;;7.97;2.42;;;13.20;86.30;;;;;;5012047;28;20046;-74
2024/01/08 10:22:07;;;;;;;9.30;2.70;;;13.20;86.00;;;;;;5012137;28;20030;-74
2024/01/08 10:24:33;;;;;;;6.25;2.75;;;13.40;85.80;;;;;;5012112;28;20041;-75
2024/01/08 10:26:59;;;;;;;6.07;2.55;;;13.50;85.20;;;;;;5012291;28;20398;-75
2024/01/08 10:29:24;;;;;;;7.65;2.63;;;13.70;85.30;;;;;;5012031;28;20042;-75
2024/01/08 10:31:50;;;;;;;7.82;3.22;;;13.90;84.70;;;;;;5011988;28;20034;-76
2024/01/08 10:34:16;;;;;;;6.65;2.72;;;13.90;84.00;;;;;;5012110;28;20042;-74
2024/01/08 10:36:44;;;;;;;9.88;2.85;;;14.00;83.80;;;;;;4994454;28;20594;-73
2024/01/08 10:39:10;;;;;;;4.65;2.30;;;14.10;82.80;;;;;;5011735;28;20143;-75
2024/01/08 10:41:36;;;;;;;7.22;2.95;;;14.10;82.50;;;;;;5012268;28;20502;-74
2024/01/08 10:44:03;;;;;;;5.18;2.45;;;14.10;82.20;;;;;;5012104;28;20042;-75
2024/01/08 10:46:44;;;;;;;6.43;2.72;;;14.10;82.20;;;;;;5011826;28;20029;-75
2024/01/08 10:49:16;;;;;;;11.27;3.17;;;14.20;82.60;;;;;;5011632;28;20455;-73
2024/01/08 10:51:46;;;;;;;6.10;2.20;;;14.30;81.50;;;;;;5011889;28;20033;-75
2024/01/08 10:54:16;;;;;;;5.50;2.60;;;14.40;81.20;;;;;;5011980;28;20073;-76
2024/01/08 10:56:42;;;;;;;8.52;3.03;;;14.40;81.10;;;;;;5011948;28;20030;-75
2024/01/08 10:59:08;;;;;;;7.30;2.83;;;14.50;81.00;;;;;;5013448;28;20038;-74
2024/01/08 11:01:36;;;;;;;16.30;3.40;;;14.60;80.60;;;;;;5015823;28;20113;-74
2024/01/08 11:04:03;;;;;;;6.53;2.58;;;14.60;80.00;;;;;;5015474;28;20121;-74
2024/01/08 11:06:30;;;;;;;7.25;2.40;;;14.60;79.70;;;;;;5015556;28;20137;-76
2024/01/08 11:08:57;;;;;;;5.03;2.28;;;14.70;80.90;;;;;;5015461;28;20432;-77
2024/01/08 11:11:23;;;;;;;4.20;2.08;;;14.80;79.70;;;;;;5015174;28;20391;-75
2024/01/08 11:13:49;;;;;;;6.97;2.30;;;14.70;78.90;;;;;;5015397;28;20105;-75
2024/01/08 11:16:26;;;;;;;5.28;2.22;;;14.60;78.40;;;;;;5015298;28;20037;-74
2024/01/08 11:19:17;;;;;;;7.05;3.75;;;14.60;78.60;;;;;;5014957;28;20409;-74
2024/01/08 11:21:47;;;;;;;5.50;2.33;;;14.60;78.80;;;;;;5014765;28;20497;-74
2024/01/08 11:24:14;;;;;;;4.28;1.95;;;14.70;78.30;;;;;;5014817;28;20111;-75
2024/01/08 11:26:51;;;;;;;6.85;2.20;;;14.80;78.40;;;;;;5015313;28;20412;-76
2024/01/08 11:29:17;;;;;;;5.68;2.13;;;15.00;78.20;;;;;;5015263;28;20026;-75
2024/01/08 11:32:13;;;;;;;4.95;1.80;;;15.00;77.70;;;;;;5015357;28;20450;-75
2024/01/08 11:35:00;;;;;;;3.72;2.17;;;15.10;77.60;;;;;;5015149;28;20080;-76
2024/01/08 11:37:32;;;;;;;6.60;2.45;;;15.20;77.00;;;;;;5014801;28;20114;-76
2024/01/08 11:40:03;;;;;;;5.70;2.15;;;15.30;75.60;;;;;;5014801;28;20533;-75
2024/01/08 11:42:30;;;;;;;5.57;2.10;;;15.30;76.00;;;;;;5014583;28;20037;-75
2024/01/08 11:45:00;;;;;;;9.68;2.33;;;15.40;76.20;;;;;;5014334;28;20099;-73
2024/01/08 11:47:26;;;;;;;5.35;2.08;;;15.50;76.10;;;;;;5014500;28;20100;-74
2024/01/08 11:49:51;;;;;;;4.57;2.10;;;15.60;76.20;;;;;;5014300;28;20062;-75
2024/01/08 11:52:18;;;;;;;4.40;1.90;;;15.70;75.50;;;;;;5014557;28;20034;-75
2024/01/08 11:54:48;;;;;;;4.60;2.05;;;15.80;75.30;;;;;;4996996;28;20037;-75
2024/01/08 11:57:16;;;;;;;5.05;1.80;;;15.80;74.90;;;;;;5014522;28;20037;-75
2024/01/08 11:59:42;;;;;;;3.35;1.85;;;15.80;74.30;;;;;;4996623;28;20045;-74
2024/01/08 12:02:10;;;;;;;4.07;2.05;;;15.90;74.00;;;;;;5014304;28;20030;-74
2024/01/08 12:04:36;;;;;;;9.82;2.28;;;16.00;72.80;;;;;;5014123;28;20040;-75
2024/01/08 12:07:02;;;;;;;4.28;1.90;;;15.90;72.50;;;;;;5014112;28;20030;-74
2024/01/08 12:09:31;;;;;;;5.90;1.73;;;16.00;72.40;;;;;;5014102;28;20056;-74
2024/01/08 12:12:05;;;;;;;3.13;1.67;;;16.00;71.80;;;;;;5014255;28;20030;-75
2024/01/08 12:14:32;;;;;;;5.20;2.47;;;16.00;70.90;;;;;;5014388;28;20110;-75
2024/01/08 12:16:58;;;;;;;2.75;1.67;;;16.00;70.80;;;;;;5013935;28;20451;-75
2024/01/08 12:19:40;;;;;;;3.95;1.65;;;15.90;71.10;;;;;;5013754;28;20073;-76
2024/01/08 12:22:06;;;;;;;4.55;1.75;;;15.80;71.00;;;;;;5013972;28;20028;-75
2024/01/08 12:24:35;;;;;;;5.63;1.90;;;15.70;70.60;;;;;;5013863;28;20033;-74
2024/01/08 12:27:05;;;;;;;3.25;1.80;;;15.60;71.00;;;;;;5013837;28;20056;-75
2024/01/08 12:29:31;;;;;;;5.88;2.10;;;15.40;71.10;;;;;;5013837;28;20038;-74
2024/01/08 12:32:00;;;;;;;4.38;1.88;;;15.40;70.80;;;;;;5013793;28;20037;-74
2024/01/08 12:34:30;;;;;;;6.90;2.00;;;15.30;71.00;;;;;;5013639;28;20128;-75
2024/01/08 12:36:58;;;;;;;4.38;1.92;;;15.30;71.30;;;;;;5013564;28;20038;-76
2024/01/08 12:39:25;;;;;;;5.60;2.40;;;15.30;71.30;;;;;;4995659;28;20050;-75
2024/01/08 12:41:55;;;;;;;3.83;1.88;;;15.20;71.20;;;;;;5013649;28;20605;-75
2024/01/08 12:44:29;;;;;;;5.20;1.70;;;15.20;71.40;;;;;;5013751;28;20041;-76